KSLK/SLK METAR and TAF weather

Enter ICAO airport designator
Station Type Date Time Source
KSLK METAR 2020/04/03 05:51 UTC NOAA

KSLK 030551Z AUTO 36003KT 10SM OVC006 01/00 A2970 RMK AO2 SLP070 60004 T00110000 10011 20006 56011


Station Type Date Time Source
KSLK Decoded METAR 2020/04/03 05:51 UTC NOAA

ADIRONDACK REGIONAL AIRPORT, NY, United States (KSLK) 44-24N 074-12W 498M
Apr 03, 2020 - 01:51 AM EDT / 2020.04.03 0551 UTC
Wind: from the N (360 degrees) at 3 MPH (3 KT):0
Visibility: 10 mile(s):0
Sky conditions: overcast
Temperature: 34.0 F (1.1 C)
Dew Point: 32.0 F (0.0 C)
Relative Humidity: 92%
Pressure (altimeter): 29.7 in. Hg (1005 hPa)
Pressure tendency: 0.03 inches (1.1 hPa) lower than three hours ago
ob: KSLK 030551Z AUTO 36003KT 10SM OVC006 01/00 A2970 RMK AO2 SLP070 60004 T00110000 10011 20006 56011
cycle: 6

Station Type Date Time Source
KSLK TAF 2020/04/03 06:27 UTC NOAA

TAF KSLK 030524Z 0306/0406 36008KT 6SM -RA BR OVC007
FM031400 04010KT 5SM BR VCSH OVC011
FM031700 04010KT P6SM BKN015
FM032200 03007KT 1SM BR BKN017
FM040300 06006KT 1SM -DZ BR BKN015

Example: see airport list